Main page
Satellite images 10-day forecastsClimateMarine weather Cyclones Lightning AirportsFAQ Newsletter About
Weather : Europe Africa North America South America Asia Australia-Oceania Others
Languages Contact

London-Gatwick, England

latitude: 51-09N, longitude: 000-11W, elevation: 62 m


METAR: EGKK 261550Z 32012KT 9999 SCT034 08/02 Q1024
TAF: EGKK 261100Z 2612/2718 32008KT 9999 SCT025 PROB30 2612/2613 5000 -DZ BKN010 PROB30 2705/2708 8000

Time: 16:23 (16:23 UTC)

Current weather observation

The report was made 33 minutes ago, at 15:50 UTC
Wind 12 kt from the Northwest
Temperature 8°C
Humidity 66%
Pressure 1024 hPa
Visibility 10 km or more
Scattered clouds at a height of 3400 ft

Change units

Forecast

The report was made 5 hours and 23 minutes ago, at 11:00 UTC
Forecast valid from 26 at 12 UTC to 27 at 18 UTC
Wind 8 kt from the Northwest
Visibility 10 km or more
Scattered clouds at a height of 2500 ft
Probability 30%
from 26 at 12 UTC to 26 at 13 UTC
Visibility: 5000 m
Broken clouds at a height of 1000 ft
light drizzle
Probability 30%
from 27 at 05 UTC to 27 at 08 UTC
Visibility: 8000 m
The information on this site is subject to a disclaimer
Weather : Europe Africa North America South America Asia Australia-Oceania Others
Satellite images 10-day forecastsClimateMarine weather Cyclones Lightning AirportsFAQ Languages Contact Newsletter About